createdAt,value
2022-12-23T00:00:31.915Z,3.23
2022-12-23T00:03:20.542Z,3.24
2022-12-23T00:05:49.438Z,3.25
2022-12-23T00:08:18.291Z,3.25
2022-12-23T00:10:48.844Z,3.26
2022-12-23T00:13:37.172Z,3.27
2022-12-23T00:16:08.627Z,3.28
2022-12-23T00:18:37.057Z,3.28
2022-12-23T00:21:09.077Z,3.28
2022-12-23T00:23:40.489Z,3.28
2022-12-23T00:26:14.869Z,3.30
2022-12-23T00:28:43.439Z,3.31
2022-12-23T00:31:14.052Z,3.31
2022-12-23T00:33:44.404Z,3.32
2022-12-23T00:36:15.283Z,3.33
2022-12-23T00:39:02.147Z,3.33
2022-12-23T00:41:49.531Z,3.35
2022-12-23T00:44:20.901Z,3.36
2022-12-23T00:46:49.897Z,3.37
2022-12-23T00:49:38.262Z,3.37
2022-12-23T00:52:08.710Z,3.38
2022-12-23T00:54:36.720Z,3.38
2022-12-23T00:57:06.726Z,3.39
2022-12-23T00:59:35.042Z,3.41
2022-12-23T01:02:22.588Z,3.43
2022-12-23T01:05:10.119Z,3.44
2022-12-23T01:07:38.351Z,3.46
2022-12-23T01:10:06.840Z,3.47
2022-12-23T01:12:34.905Z,3.48
2022-12-23T01:15:03.167Z,3.49
2022-12-23T01:17:31.538Z,3.47
2022-12-23T01:20:00.047Z,3.44
2022-12-23T01:22:28.197Z,3.43
2022-12-23T01:24:56.739Z,3.39
2022-12-23T01:27:24.848Z,3.36
2022-12-23T01:29:53.770Z,3.33
2022-12-23T01:32:22.323Z,3.29
2022-12-23T01:34:50.382Z,3.29
2022-12-23T01:37:18.541Z,3.30
2022-12-23T01:39:46.935Z,3.31
2022-12-23T01:42:46.523Z,3.33
2022-12-23T01:45:20.470Z,3.37
2022-12-23T01:48:04.052Z,3.39
2022-12-23T01:50:50.372Z,3.41
2022-12-23T01:53:22.422Z,3.42
2022-12-23T01:56:15.215Z,3.46
2022-12-23T01:59:07.771Z,3.49
2022-12-23T02:03:18.113Z,3.53
2022-12-23T02:05:47.286Z,3.56
2022-12-23T02:08:35.297Z,3.59
2022-12-23T02:11:35.986Z,3.62
2022-12-23T02:14:34.991Z,3.61
2022-12-23T02:17:31.461Z,3.61
2022-12-23T02:20:28.767Z,3.63
2022-12-23T02:23:11.113Z,3.65
2022-12-23T02:25:58.627Z,3.66
2022-12-23T02:29:03.970Z,3.67
2022-12-23T02:31:58.459Z,3.67
2022-12-23T02:34:48.111Z,3.69
2022-12-23T02:37:25.248Z,3.70
2022-12-23T02:40:15.032Z,3.71
2022-12-23T02:42:59.403Z,3.72
2022-12-23T02:45:40.691Z,3.70
2022-12-23T02:48:24.144Z,3.70
2022-12-23T02:50:54.819Z,3.68
2022-12-23T02:53:31.731Z,3.66
2022-12-23T02:56:02.133Z,3.63
2022-12-23T02:58:35.386Z,3.61
2022-12-23T03:01:07.223Z,3.60
2022-12-23T03:03:36.951Z,3.59
2022-12-23T03:06:17.654Z,3.61
2022-12-23T03:08:45.921Z,3.60
2022-12-23T03:11:16.063Z,3.60
2022-12-23T03:13:52.886Z,3.61
2022-12-23T03:16:27.103Z,3.64
2022-12-23T03:19:07.843Z,3.65
2022-12-23T03:21:41.800Z,3.65
2022-12-23T03:24:27.243Z,3.65
2022-12-23T03:27:08.607Z,3.65
2022-12-23T03:29:54.470Z,3.64
2022-12-23T03:32:27.674Z,3.65
2022-12-23T03:34:58.715Z,3.65
2022-12-23T03:37:30.061Z,3.64
2022-12-23T03:40:24.751Z,3.61
2022-12-23T03:43:04.039Z,3.57
2022-12-23T03:45:40.876Z,3.55
2022-12-23T03:48:21.815Z,3.54
2022-12-23T03:50:56.015Z,3.55
2022-12-23T03:53:45.985Z,3.55
2022-12-23T03:56:24.822Z,3.56
2022-12-23T03:58:58.108Z,3.57
2022-12-23T04:02:01.817Z,3.58
2022-12-23T04:04:46.393Z,3.59
2022-12-23T04:07:46.793Z,3.61
2022-12-23T04:10:15.558Z,3.63
2022-12-23T04:12:44.217Z,3.63
2022-12-23T04:15:13.274Z,3.64
2022-12-23T04:17:41.880Z,3.66
2022-12-23T04:20:10.717Z,3.65
2022-12-23T04:22:39.748Z,3.67
2022-12-23T04:25:08.404Z,3.68
2022-12-23T04:27:36.917Z,3.68
2022-12-23T04:30:07.424Z,3.68
2022-12-23T04:32:35.721Z,3.69
2022-12-23T04:35:04.005Z,3.70
2022-12-23T04:37:32.137Z,3.69
2022-12-23T04:40:00.244Z,3.69
2022-12-23T04:42:28.260Z,3.70
2022-12-23T04:44:56.417Z,3.71
2022-12-23T04:47:24.638Z,3.73
2022-12-23T04:49:52.833Z,3.74
2022-12-23T04:52:21.308Z,3.73
2022-12-23T04:54:49.751Z,3.73
2022-12-23T04:57:18.053Z,3.76
2022-12-23T04:59:46.169Z,3.76
2022-12-23T05:02:14.523Z,3.77
2022-12-23T05:04:42.841Z,3.76
2022-12-23T05:07:11.479Z,3.76
2022-12-23T05:09:39.558Z,3.75
2022-12-23T05:12:07.648Z,3.73
2022-12-23T05:14:35.861Z,3.69
2022-12-23T05:17:07.714Z,3.65
2022-12-23T05:19:36.454Z,3.61
2022-12-23T05:22:04.626Z,3.59
2022-12-23T05:24:32.794Z,3.58
2022-12-23T05:27:00.956Z,3.57
2022-12-23T05:29:29.029Z,3.56
2022-12-23T05:31:57.195Z,3.56
2022-12-23T05:34:25.478Z,3.55
2022-12-23T05:36:53.468Z,3.54
2022-12-23T05:39:21.499Z,3.54
2022-12-23T05:41:49.832Z,3.52
2022-12-23T05:44:17.861Z,3.49
2022-12-23T05:46:46.081Z,3.46
2022-12-23T05:49:14.284Z,3.42
2022-12-23T05:51:42.328Z,3.40
2022-12-23T05:54:10.527Z,3.39
2022-12-23T05:56:38.704Z,3.39
2022-12-23T05:59:06.756Z,3.37
2022-12-23T06:01:34.989Z,3.34
2022-12-23T06:04:03.540Z,3.32
2022-12-23T06:06:31.762Z,3.31
2022-12-23T06:09:00.443Z,3.30
2022-12-23T06:11:29.121Z,3.28
2022-12-23T06:13:57.306Z,3.26
2022-12-23T06:16:25.670Z,3.23
2022-12-23T06:18:57.261Z,3.18
2022-12-23T06:21:25.663Z,3.16
2022-12-23T06:23:53.971Z,3.14
2022-12-23T06:26:22.184Z,3.14
2022-12-23T06:28:50.304Z,3.13
2022-12-23T06:31:18.739Z,3.12
2022-12-23T06:33:47.001Z,3.12
2022-12-23T06:36:15.150Z,3.11
2022-12-23T06:38:43.323Z,3.10
2022-12-23T06:41:11.497Z,3.09
2022-12-23T06:43:39.633Z,3.09
2022-12-23T06:46:08.058Z,3.08
2022-12-23T06:48:36.544Z,3.07
2022-12-23T06:51:06.280Z,3.05
2022-12-23T06:53:34.437Z,3.02
2022-12-23T06:56:04.455Z,2.99
2022-12-23T06:58:32.635Z,2.97
2022-12-23T07:01:00.807Z,2.96
2022-12-23T07:03:29.056Z,2.97
2022-12-23T07:05:58.079Z,2.96
2022-12-23T07:08:26.260Z,2.98
2022-12-23T07:11:01.750Z,2.99
2022-12-23T07:13:31.443Z,3.00
2022-12-23T07:16:04.645Z,3.02
2022-12-23T07:18:33.085Z,3.03
2022-12-23T07:21:02.381Z,3.04
2022-12-23T07:23:30.923Z,3.04
2022-12-23T07:25:58.935Z,3.05
2022-12-23T07:28:27.014Z,3.04
2022-12-23T07:30:55.203Z,3.03
2022-12-23T07:33:23.558Z,3.03
2022-12-23T07:35:51.528Z,3.02
2022-12-23T07:38:19.769Z,3.02
2022-12-23T07:40:49.342Z,3.01
2022-12-23T07:43:17.344Z,3.02
2022-12-23T07:45:45.490Z,3.04
2022-12-23T07:48:13.699Z,3.07
2022-12-23T07:50:41.772Z,3.09
2022-12-23T07:53:09.945Z,3.11
2022-12-23T07:55:38.453Z,3.12
2022-12-23T07:58:06.507Z,3.13
2022-12-23T08:00:34.656Z,3.14
2022-12-23T08:03:05.259Z,3.14
2022-12-23T08:05:33.434Z,3.16
2022-12-23T08:08:01.447Z,3.17
2022-12-23T08:10:32.085Z,3.21
2022-12-23T08:13:00.894Z,3.24
2022-12-23T08:15:29.079Z,3.27
2022-12-23T08:17:57.470Z,3.30
2022-12-23T08:20:25.564Z,3.35
2022-12-23T08:22:53.553Z,3.40
2022-12-23T08:25:21.608Z,3.43
2022-12-23T08:27:51.114Z,3.47
2022-12-23T08:30:21.202Z,3.49
2022-12-23T08:32:49.332Z,3.50
2022-12-23T08:35:17.356Z,3.50
2022-12-23T08:37:45.348Z,3.51
2022-12-23T08:40:13.942Z,3.52
2022-12-23T08:42:41.964Z,3.53
2022-12-23T08:45:10.585Z,3.55
2022-12-23T08:47:38.747Z,3.56
2022-12-23T08:50:07.315Z,3.57
2022-12-23T08:52:35.396Z,3.59
2022-12-23T08:55:04.845Z,3.62
2022-12-23T08:57:34.480Z,3.64
2022-12-23T09:00:03.049Z,3.67
2022-12-23T09:02:31.765Z,3.70
2022-12-23T09:05:01.146Z,3.72
2022-12-23T09:07:29.309Z,3.73
2022-12-23T09:10:00.999Z,3.73
2022-12-23T09:12:29.087Z,3.73
2022-12-23T09:14:57.097Z,3.77
2022-12-23T09:17:25.254Z,3.82
2022-12-23T09:19:53.586Z,3.87
2022-12-23T09:22:21.705Z,3.93
2022-12-23T09:24:49.949Z,4.00
2022-12-23T09:27:17.951Z,4.06
2022-12-23T09:29:46.193Z,4.13
2022-12-23T09:32:14.500Z,4.17
2022-12-23T09:34:42.749Z,4.26
2022-12-23T09:37:13.907Z,4.34
2022-12-23T09:39:43.033Z,4.42
2022-12-23T09:42:20.447Z,4.48
2022-12-23T09:45:13.970Z,4.53
2022-12-23T09:47:43.466Z,4.58
2022-12-23T09:50:26.539Z,4.62
2022-12-23T09:53:02.421Z,4.64
2022-12-23T09:55:57.872Z,4.66
2022-12-23T09:59:07.900Z,4.69
2022-12-23T10:01:45.332Z,4.75
2022-12-23T10:04:22.965Z,4.79
2022-12-23T10:07:03.747Z,4.82
2022-12-23T10:09:41.647Z,4.84
2022-12-23T10:12:27.191Z,4.86
2022-12-23T10:14:59.242Z,4.87
2022-12-23T10:17:34.918Z,4.88
2022-12-23T10:20:10.702Z,4.90
2022-12-23T10:22:42.938Z,4.92
2022-12-23T10:25:22.962Z,4.94
2022-12-23T10:27:51.190Z,4.96
2022-12-23T10:30:51.366Z,4.96
2022-12-23T10:33:23.358Z,4.97
2022-12-23T10:36:11.127Z,4.97
2022-12-23T10:38:52.242Z,5.00
2022-12-23T10:41:39.402Z,5.02
2022-12-23T10:44:32.785Z,5.04
2022-12-23T10:47:25.018Z,5.09
2022-12-23T10:50:17.840Z,5.16
2022-12-23T10:52:47.225Z,5.22
2022-12-23T10:55:29.839Z,5.25
2022-12-23T10:58:09.332Z,5.27
2022-12-23T11:00:41.358Z,5.29
2022-12-23T11:03:29.524Z,5.30
2022-12-23T11:05:59.400Z,5.30
2022-12-23T11:08:31.136Z,5.30
2022-12-23T11:11:01.515Z,5.30
2022-12-23T11:13:32.289Z,5.30
2022-12-23T11:16:18.921Z,5.29
2022-12-23T11:18:58.004Z,5.28
2022-12-23T11:21:27.427Z,5.28
2022-12-23T11:24:18.201Z,5.27
2022-12-23T11:26:50.314Z,5.25
2022-12-23T11:29:48.278Z,5.25
2022-12-23T11:32:22.196Z,5.25
2022-12-23T11:34:51.404Z,5.25
2022-12-23T11:37:39.330Z,5.27
2022-12-23T11:40:22.141Z,5.29
2022-12-23T11:42:56.576Z,5.31
2022-12-23T11:45:28.578Z,5.33
2022-12-23T11:47:56.858Z,5.33
2022-12-23T11:50:37.314Z,5.34
2022-12-23T11:53:20.074Z,5.34
2022-12-23T11:56:23.859Z,5.31
2022-12-23T11:59:03.379Z,5.30
2022-12-23T12:01:32.743Z,5.30
2022-12-23T12:04:05.714Z,5.32
2022-12-23T12:06:34.760Z,5.33
2022-12-23T12:09:06.788Z,5.34
2022-12-23T12:11:51.968Z,5.34
2022-12-23T12:14:43.186Z,5.34
2022-12-23T12:17:23.607Z,5.30
2022-12-23T12:20:18.373Z,5.29
2022-12-23T12:23:13.881Z,5.28
2022-12-23T12:25:53.675Z,5.27
2022-12-23T12:28:26.064Z,5.27
2022-12-23T12:31:18.941Z,5.27
2022-12-23T12:33:57.864Z,5.27
2022-12-23T12:36:55.906Z,5.28
2022-12-23T12:39:49.972Z,5.27
2022-12-23T12:42:33.502Z,5.27
2022-12-23T12:45:21.046Z,5.27
2022-12-23T12:48:30.989Z,5.29
2022-12-23T12:51:17.225Z,5.33
2022-12-23T12:54:10.238Z,5.39
2022-12-23T12:56:49.785Z,5.42
2022-12-23T12:59:21.350Z,5.42
2022-12-23T13:01:58.317Z,5.41
2022-12-23T13:04:29.293Z,5.39
2022-12-23T13:07:35.054Z,5.36
2022-12-23T13:10:33.695Z,5.31
2022-12-23T13:13:17.260Z,5.29
2022-12-23T13:15:48.618Z,5.27
2022-12-23T13:18:31.735Z,5.27
2022-12-23T13:21:12.316Z,5.28
2022-12-23T13:23:52.428Z,5.30
2022-12-23T13:26:37.840Z,5.32
2022-12-23T13:29:14.821Z,5.32
2022-12-23T13:31:52.542Z,5.32
2022-12-23T13:34:35.783Z,5.33
2022-12-23T13:37:37.020Z,5.35
2022-12-23T13:40:28.256Z,5.36
2022-12-23T13:43:00.202Z,5.36
2022-12-23T13:45:36.197Z,5.37
2022-12-23T13:48:43.431Z,5.37
2022-12-23T13:51:17.367Z,5.37
2022-12-23T13:54:10.744Z,5.35
2022-12-23T13:56:43.443Z,5.34
2022-12-23T13:59:13.304Z,5.31
2022-12-23T14:01:41.387Z,5.31
2022-12-23T14:04:30.073Z,5.32
2022-12-23T14:07:17.001Z,5.31
2022-12-23T14:09:52.699Z,5.31
2022-12-23T14:12:27.825Z,5.32
2022-12-23T14:15:12.331Z,5.32
2022-12-23T14:17:48.642Z,5.32
2022-12-23T14:20:27.766Z,5.31
2022-12-23T14:23:05.933Z,5.31
2022-12-23T14:26:15.349Z,5.31
2022-12-23T14:29:20.658Z,5.32
2022-12-23T14:31:57.070Z,5.32
2022-12-23T14:34:29.329Z,5.32
2022-12-23T14:37:23.355Z,5.33
2022-12-23T14:39:52.894Z,5.33
2022-12-23T14:42:41.520Z,5.33
2022-12-23T14:45:49.055Z,5.36
2022-12-23T14:48:44.788Z,5.36
2022-12-23T14:51:33.515Z,5.37
2022-12-23T14:54:02.276Z,5.36
2022-12-23T14:56:39.768Z,5.34
2022-12-23T14:59:23.774Z,5.32
2022-12-23T15:01:53.949Z,5.32
2022-12-23T15:04:27.482Z,5.31
2022-12-23T15:07:09.211Z,5.32
2022-12-23T15:09:48.807Z,5.32
2022-12-23T15:12:27.253Z,5.34
2022-12-23T15:14:59.595Z,5.35
2022-12-23T15:17:33.760Z,5.37
2022-12-23T15:20:11.337Z,5.38
2022-12-23T15:22:41.891Z,5.40
2022-12-23T15:25:56.317Z,5.41
2022-12-23T15:28:35.002Z,5.42
2022-12-23T15:31:04.394Z,5.44
2022-12-23T15:34:02.292Z,5.43
2022-12-23T15:36:32.198Z,5.44
2022-12-23T15:39:02.152Z,5.45
2022-12-23T15:41:30.290Z,5.46
2022-12-23T15:44:01.915Z,5.46
2022-12-23T15:46:32.066Z,5.47
2022-12-23T15:49:00.090Z,5.49
2022-12-23T15:52:07.117Z,5.49
2022-12-23T15:54:31.723Z,5.49
2022-12-23T15:57:03.033Z,5.46
2022-12-23T15:59:38.364Z,5.46
2022-12-23T16:05:30.096Z,5.42
2022-12-23T16:08:11.566Z,5.42
2022-12-23T16:10:41.836Z,5.43
2022-12-23T16:13:20.805Z,5.43
2022-12-23T16:15:49.215Z,5.45
2022-12-23T16:18:31.884Z,5.46
2022-12-23T16:21:03.372Z,5.48
2022-12-23T16:23:35.107Z,5.50
2022-12-23T16:26:03.904Z,5.51
2022-12-23T16:28:58.372Z,5.52
2022-12-23T16:31:26.725Z,5.53
2022-12-23T16:33:58.069Z,5.53
2022-12-23T16:36:26.179Z,5.54
2022-12-23T16:39:02.554Z,5.55
2022-12-23T16:41:30.711Z,5.57
2022-12-23T16:43:59.450Z,5.57
2022-12-23T16:46:32.119Z,5.57
2022-12-23T16:49:04.649Z,5.59
2022-12-23T16:51:34.437Z,5.59
2022-12-23T16:54:02.763Z,5.61
2022-12-23T16:56:34.922Z,5.62
2022-12-23T16:59:04.482Z,5.63
2022-12-23T17:01:36.460Z,5.63
2022-12-23T17:04:07.492Z,5.64
2022-12-23T17:06:36.538Z,5.64
2022-12-23T17:09:08.035Z,5.63
2022-12-23T17:11:41.728Z,5.62
2022-12-23T17:14:20.933Z,5.60
2022-12-23T17:16:50.436Z,5.60
2022-12-23T17:19:27.275Z,5.61
2022-12-23T17:22:02.020Z,5.61
2022-12-23T17:24:30.320Z,5.61
2022-12-23T17:26:58.688Z,5.62
2022-12-23T17:29:27.304Z,5.63
2022-12-23T17:31:55.652Z,5.65
2022-12-23T17:34:24.683Z,5.66
2022-12-23T17:36:53.095Z,5.67
2022-12-23T17:39:22.351Z,5.68
2022-12-23T17:41:51.037Z,5.69
2022-12-23T17:44:19.410Z,5.70
2022-12-23T17:46:47.766Z,5.70
2022-12-23T17:49:15.952Z,5.71
2022-12-23T17:51:44.127Z,5.70
2022-12-23T17:54:25.074Z,5.68
2022-12-23T17:56:54.144Z,5.68
2022-12-23T17:59:22.302Z,5.67
2022-12-23T18:01:50.874Z,5.67
2022-12-23T18:04:19.240Z,5.66
2022-12-23T18:06:47.332Z,5.67
2022-12-23T18:09:15.496Z,5.67
2022-12-23T18:11:46.864Z,5.69
2022-12-23T18:14:21.547Z,5.70
2022-12-23T18:16:49.876Z,5.71
2022-12-23T18:19:20.420Z,5.72
2022-12-23T18:21:49.298Z,5.72
2022-12-23T18:24:18.469Z,5.73
2022-12-23T18:26:47.613Z,5.74
2022-12-23T18:29:15.690Z,5.75
2022-12-23T18:31:51.589Z,5.74
2022-12-23T18:34:21.161Z,5.73
2022-12-23T18:36:52.107Z,5.73
2022-12-23T18:39:20.771Z,5.74
2022-12-23T18:41:49.048Z,5.73
2022-12-23T18:44:21.188Z,5.71
2022-12-23T18:46:50.102Z,5.70
2022-12-23T18:49:18.586Z,5.69
2022-12-23T18:51:46.912Z,5.67
2022-12-23T18:54:16.370Z,5.66
2022-12-23T18:56:45.038Z,5.66
2022-12-23T18:59:22.839Z,5.67
2022-12-23T19:01:56.533Z,5.66
2022-12-23T19:04:25.571Z,5.67
2022-12-23T19:06:55.698Z,5.67
2022-12-23T19:09:24.239Z,5.69
2022-12-23T19:11:54.346Z,5.69
2022-12-23T19:14:22.741Z,5.68
2022-12-23T19:16:52.613Z,5.69
2022-12-23T19:19:21.884Z,5.71
2022-12-23T19:21:49.949Z,5.71
2022-12-23T19:24:18.653Z,5.70
2022-12-23T19:26:47.154Z,5.68
2022-12-23T19:29:15.258Z,5.69
2022-12-23T19:31:43.493Z,5.69
2022-12-23T19:34:15.397Z,5.68
2022-12-23T19:36:44.618Z,5.68
2022-12-23T19:39:17.408Z,5.68
2022-12-23T19:41:46.040Z,5.67
2022-12-23T19:44:14.329Z,5.67
2022-12-23T19:46:42.746Z,5.67
2022-12-23T19:49:17.542Z,5.68
2022-12-23T19:51:49.610Z,5.69
2022-12-23T19:54:19.005Z,5.68
2022-12-23T19:56:51.004Z,5.69
2022-12-23T19:59:20.012Z,5.72
2022-12-23T20:01:48.731Z,5.75
2022-12-23T20:04:16.933Z,5.76
2022-12-23T20:06:45.632Z,5.76
2022-12-23T20:09:14.031Z,5.76
2022-12-23T20:11:44.696Z,5.73
2022-12-23T20:14:15.248Z,5.73
2022-12-23T20:16:44.582Z,5.72
2022-12-23T20:19:12.658Z,5.71
2022-12-23T20:21:41.050Z,5.71
2022-12-23T20:24:09.580Z,5.71
2022-12-23T20:26:38.006Z,5.71
2022-12-23T20:29:06.489Z,5.74
2022-12-23T20:31:37.777Z,5.76
2022-12-23T20:34:07.756Z,5.76
2022-12-23T20:36:36.790Z,5.75
2022-12-23T20:39:05.487Z,5.74
2022-12-23T20:41:33.842Z,5.72
2022-12-23T20:44:33.891Z,5.70
2022-12-23T20:46:51.134Z,5.68
2022-12-23T20:49:19.518Z,5.66
2022-12-23T20:51:47.615Z,5.65
2022-12-23T20:54:15.787Z,5.66
2022-12-23T20:56:44.011Z,5.66
2022-12-23T20:59:12.047Z,5.67
2022-12-23T21:01:41.607Z,5.67
2022-12-23T21:04:17.876Z,5.68
2022-12-23T21:06:46.359Z,5.69
2022-12-23T21:09:15.418Z,5.69
2022-12-23T21:11:46.346Z,5.70
2022-12-23T21:14:15.653Z,5.70
2022-12-23T21:16:43.983Z,5.69
2022-12-23T21:19:18.267Z,5.67
2022-12-23T21:21:47.664Z,5.67
2022-12-23T21:24:16.634Z,5.64
2022-12-23T21:26:55.438Z,5.63
2022-12-23T21:29:24.895Z,5.59
2022-12-23T21:31:53.304Z,5.57
2022-12-23T21:34:21.410Z,5.55
2022-12-23T21:36:49.643Z,5.55
2022-12-23T21:39:17.967Z,5.53
2022-12-23T21:41:46.079Z,5.50
2022-12-23T21:44:15.030Z,5.50
2022-12-23T21:46:43.383Z,5.46
2022-12-23T21:49:11.829Z,5.46
2022-12-23T21:51:41.541Z,5.46
2022-12-23T21:54:11.813Z,5.46
2022-12-23T21:56:41.020Z,5.46
2022-12-23T21:59:14.201Z,5.47
2022-12-23T22:01:42.910Z,5.50
2022-12-23T22:04:11.426Z,5.51
2022-12-23T22:06:43.772Z,5.54
2022-12-23T22:09:15.817Z,5.53
2022-12-23T22:11:45.108Z,5.52
2022-12-23T22:14:15.968Z,5.50
2022-12-23T22:16:44.200Z,5.47
2022-12-23T22:19:12.590Z,5.45
2022-12-23T22:21:42.856Z,5.46
2022-12-23T22:24:11.156Z,5.44
2022-12-23T22:26:39.788Z,5.43
2022-12-23T22:29:08.183Z,5.44
2022-12-23T22:31:45.954Z,5.45
2022-12-23T22:34:17.359Z,5.46
2022-12-23T22:36:46.811Z,5.47
2022-12-23T22:39:20.689Z,5.47
2022-12-23T22:41:52.993Z,5.47
2022-12-23T22:44:21.767Z,5.45
2022-12-23T22:46:50.025Z,5.43
2022-12-23T22:49:18.614Z,5.40
2022-12-23T22:51:46.885Z,5.38
2022-12-23T22:54:14.932Z,5.37
2022-12-23T22:56:45.899Z,5.36
2022-12-23T22:59:24.697Z,5.35
2022-12-23T23:01:53.969Z,5.29
2022-12-23T23:04:22.242Z,5.27
2022-12-23T23:06:50.395Z,5.25
2022-12-23T23:09:20.740Z,5.23
2022-12-23T23:11:50.413Z,5.22
2022-12-23T23:14:19.823Z,5.21
2022-12-23T23:16:48.082Z,5.20
2022-12-23T23:19:20.229Z,5.17
2022-12-23T23:21:49.140Z,5.13
2022-12-23T23:24:17.545Z,5.11
2022-12-23T23:26:45.654Z,5.09
2022-12-23T23:29:14.049Z,5.07
2022-12-23T23:31:44.692Z,5.06
2022-12-23T23:34:13.799Z,5.04
2022-12-23T23:36:42.598Z,5.01
2022-12-23T23:39:14.246Z,4.98
2022-12-23T23:41:43.101Z,4.96
2022-12-23T23:44:12.279Z,4.96
2022-12-23T23:46:40.455Z,4.99
2022-12-23T23:49:08.632Z,5.01
2022-12-23T23:51:37.145Z,5.02
2022-12-23T23:54:06.065Z,5.04
2022-12-23T23:56:38.804Z,5.04
2022-12-23T23:59:08.971Z,5.04
